Latest Weather Observations for Banana Bank

IDQ60901

Issued at 2:41 am EST Monday 6 July 2020 (issued every 10 minutes, with the page automatically refreshed every 10 minutes)

About weather observations | Map of Brisbane area stations | Latest observations for Brisbane area | Other Formats
Station Details ID: 040925 Name: BANANA BANK NORTH BEACON Lat: -27.53 Lon: 153.33 Height: 7.0 m
Data from the previous 72 hours. | See also: Recent months at Banana Bank
Date/Time
EST
Temp
°C
App
Temp
°C
Dew
Point
°C
Rel
Hum
%
Delta-T
°C
Wind Press
QNH
hPa
Press
MSL
hPa
Rain since
9am
mm
Dir  Spd
km/h
Gust
km/h
Spd
kts
Gust
kts
06/02:30am - - - - - SSW 7 9 4 5 - - -
06/02:00am - - - - - SW 9 9 5 5 - - -
06/01:30am - - - - - SW 7 9 4 5 - - -
06/01:00am - - - - - SSW 7 9 4 5 - - -
06/12:30am - - - - - SSW 7 9 4 5 - - -
06/12:00am - - - - - SSW 6 7 3 4 - - -
 
Date/Time
EST
Temp
°C
App
Temp
°C
Dew
Point
°C
Rel
Hum
%
Delta-T
°C
Wind Press
QNH
hPa
Press
MSL
hPa
Rain since
9am
mm
Dir  Spd
km/h
Gust
km/h
Spd
kts
Gust
kts
05/11:30pm - - - - - SSW 6 7 3 4 - - -
05/11:00pm - - - - - SW 9 11 5 6 - - -
05/10:30pm - - - - - WSW 9 13 5 7 - - -
05/10:00pm - - - - - SSW 11 13 6 7 - - -
05/09:30pm - - - - - SSW 9 13 5 7 - - -
05/09:00pm - - - - - SW 9 13 5 7 - - -
05/08:30pm - - - - - CALM 0 2 0 1 - - -
05/08:00pm - - - - - E 4 6 2 3 - - -
05/07:30pm - - - - - ENE 9 11 5 6 - - -
05/07:00pm - - - - - ENE 11 13 6 7 - - -
05/06:30pm - - - - - NE 9 11 5 6 - - -
05/06:00pm - - - - - NNE 7 9 4 5 - - -
05/05:30pm - - - - - NNE 9 11 5 6 - - -
05/05:00pm - - - - - N 9 11 5 6 - - -
05/04:30pm - - - - - ENE 7 7 4 4 - - -
05/04:00pm - - - - - E 7 9 4 5 - - -
05/03:30pm - - - - - ESE 7 9 4 5 - - -
05/03:00pm - - - - - SSE 9 11 5 6 - - -
05/02:30pm - - - - - SSE 9 11 5 6 - - -
05/02:00pm - - - - - SSE 9 11 5 6 - - -
05/01:30pm - - - - - S 7 9 4 5 - - -
05/01:00pm - - - - - SSW 9 13 5 7 - - -
05/12:30pm - - - - - SSW 11 17 6 9 - - -
05/12:00pm - - - - - SE 2 4 1 2 - - -
05/11:30am - - - - - SE 6 9 3 5 - - -
05/11:00am - - - - - SW 7 11 4 6 - - -
05/10:30am - - - - - WSW 7 11 4 6 - - -
05/10:00am - - - - - SW 11 15 6 8 - - -
05/09:30am - - - - - SW 13 19 7 10 - - -
05/09:00am - - - - - WSW 9 15 5 8 - - -
05/08:30am - - - - - WSW 7 11 4 6 - - -
05/08:00am - - - - - W 6 11 3 6 - - -
05/07:30am - - - - - WNW 6 7 3 4 - - -
05/07:00am - - - - - WSW 9 15 5 8 - - -
05/06:30am - - - - - WSW 11 17 6 9 - - -
05/06:00am - - - - - WSW 9 15 5 8 - - -
05/05:30am - - - - - WSW 9 15 5 8 - - -
05/05:00am - - - - - W 7 11 4 6 - - -
05/04:30am - - - - - WSW 7 11 4 6 - - -
05/04:00am - - - - - SW 17 24 9 13 - - -
05/03:30am - - - - - WSW 15 20 8 11 - - -
05/03:00am - - - - - WSW 20 30 11 16 - - -
05/02:30am - - - - - WSW 17 24 9 13 - - -
05/02:00am - - - - - WSW 19 28 10 15 - - -
05/01:30am - - - - - WSW 17 26 9 14 - - -
05/01:00am - - - - - WSW 17 24 9 13 - - -
05/12:30am - - - - - WSW 17 24 9 13 - - -
05/12:00am - - - - - WSW 19 26 10 14 - - -
 
Date/Time
EST
Temp
°C
App
Temp
°C
Dew
Point
°C
Rel
Hum
%
Delta-T
°C
Wind Press
QNH
hPa
Press
MSL
hPa
Rain since
9am
mm
Dir  Spd
km/h
Gust
km/h
Spd
kts
Gust
kts
04/11:30pm - - - - - WSW 19 24 10 13 - - -
04/11:00pm - - - - - WSW 19 28 10 15 - - -
04/10:30pm - - - - - WSW 24 32 13 17 - - -
04/10:00pm - - - - - WSW 20 32 11 17 - - -
04/09:30pm - - - - - W 24 30 13 16 - - -
04/09:00pm - - - - - WSW 22 28 12 15 - - -
04/08:30pm - - - - - W 20 28 11 15 - - -
04/08:00pm - - - - - WSW 17 22 9 12 - - -
04/07:30pm - - - - - WSW 13 20 7 11 - - -
04/07:00pm - - - - - W 24 32 13 17 - - -
04/06:30pm - - - - - WSW 17 24 9 13 - - -
04/06:00pm - - - - - WSW 22 32 12 17 - - -
04/05:30pm - - - - - WSW 19 28 10 15 - - -
04/05:00pm - - - - - WSW 15 20 8 11 - - -
04/04:30pm - - - - - WSW 17 28 9 15 - - -
04/04:00pm - - - - - WSW 20 35 11 19 - - -
04/03:30pm - - - - - WSW 19 28 10 15 - - -
04/03:00pm - - - - - WSW 26 39 14 21 - - -
04/02:30pm - - - - - W 19 32 10 17 - - -
04/02:00pm - - - - - W 28 41 15 22 - - -
04/01:30pm - - - - - W 24 33 13 18 - - -
04/01:00pm - - - - - WSW 19 35 10 19 - - -
04/12:30pm - - - - - W 30 43 16 23 - - -
04/12:00pm - - - - - WSW 19 32 10 17 - - -
04/11:30am - - - - - W 17 24 9 13 - - -
04/11:00am - - - - - WSW 20 37 11 20 - - -
04/10:30am - - - - - WSW 19 28 10 15 - - -
04/10:00am - - - - - WSW 19 28 10 15 - - -
04/09:30am - - - - - WSW 20 35 11 19 - - -
04/09:00am - - - - - WSW 11 19 6 10 - - -
04/08:30am - - - - - WSW 22 32 12 17 - - -
04/08:00am - - - - - WSW 24 35 13 19 - - -
04/07:30am - - - - - WSW 22 32 12 17 - - -
04/07:00am - - - - - W 24 32 13 17 - - -
04/06:30am - - - - - WNW 19 26 10 14 - - -
04/06:00am - - - - - WNW 17 20 9 11 - - -
04/05:30am - - - - - NW 11 22 6 12 - - -
04/05:00am - - - - - W 13 19 7 10 - - -
04/04:30am - - - - - W 20 26 11 14 - - -
04/04:00am - - - - - W 28 35 15 19 - - -
04/03:30am - - - - - W 24 32 13 17 - - -
04/03:00am - - - - - WNW 20 26 11 14 - - -
04/02:30am - - - - - WNW 13 15 7 8 - - -
04/02:00am - - - - - WNW 15 19 8 10 - - -
04/01:30am - - - - - NW 17 19 9 10 - - -
04/01:00am - - - - - NNW 17 19 9 10 - - -
04/12:30am - - - - - NNW 13 15 7 8 - - -
04/12:00am - - - - - NW 17 19 9 10 - - -
 
Date/Time
EST
Temp
°C
App
Temp
°C
Dew
Point
°C
Rel
Hum
%
Delta-T
°C
Wind Press
QNH
hPa
Press
MSL
hPa
Rain since
9am
mm
Dir  Spd
km/h
Gust
km/h
Spd
kts
Gust
kts
03/11:30pm - - - - - NW 17 20 9 11 - - -
03/11:00pm - - - - - NNW 20 28 11 15 - - -
03/10:30pm - - - - - NW 17 20 9 11 - - -
03/10:00pm - - - - - NNW 22 26 12 14 - - -
03/09:30pm - - - - - NNW 17 19 9 10 - - -
03/09:00pm - - - - - N 15 17 8 9 - - -
03/08:30pm - - - - - N 15 17 8 9 - - -
03/08:00pm - - - - - N 19 20 10 11 - - -
03/07:30pm - - - - - N 19 22 10 12 - - -
03/07:00pm - - - - - N 19 22 10 12 - - -
03/06:30pm - - - - - NNE 19 20 10 11 - - -
03/06:00pm - - - - - NNE 17 20 9 11 - - -
03/05:30pm - - - - - NNE 17 20 9 11 - - -
03/05:00pm - - - - - N 19 20 10 11 - - -
03/04:30pm - - - - - N 19 22 10 12 - - -
03/04:00pm - - - - - N 17 20 9 11 - - -
03/03:30pm - - - - - N 13 17 7 9 - - -
03/03:00pm - - - - - N 11 15 6 8 - - -
03/02:30pm - - - - - N 9 11 5 6 - - -
03/02:00pm - - - - - N 9 11 5 6 - - -
03/01:30pm - - - - - N 11 13 6 7 - - -
03/01:00pm - - - - - N 11 13 6 7 - - -
03/12:30pm - - - - - N 11 13 6 7 - - -
03/12:00pm - - - - - N 11 13 6 7 - - -
03/11:30am - - - - - N 11 13 6 7 - - -
03/11:00am - - - - - N 6 7 3 4 - - -
03/10:30am - - - - - NNW 4 6 2 3 - - -
03/10:00am - - - - - N 4 6 2 3 - - -
03/09:30am - - - - - WNW 2 4 1 2 - - -
03/09:00am - - - - - WNW 4 4 2 2 - - -
03/08:30am - - - - - WNW 4 6 2 3 - - -
03/08:00am - - - - - W 6 6 3 3 - - -
03/07:30am - - - - - WNW 4 6 2 3 - - -
03/07:00am - - - - - CALM 0 0 0 0 - - -
03/06:30am - - - - - S 2 4 1 2 - - -
03/06:00am - - - - - SW 9 13 5 7 - - -
03/05:30am - - - - - W 4 6 2 3 - - -
03/05:00am - - - - - WSW 6 7 3 4 - - -
03/04:30am - - - - - WSW 6 9 3 5 - - -
03/04:00am - - - - - WNW 6 6 3 3 - - -
03/03:30am - - - - - W 4 4 2 2 - - -
03/03:00am - - - - - W 2 4 1 2 - - -

Latest Capital City Observations: Canberra | Sydney | Melbourne | Brisbane | Adelaide | Perth | Hobart | Darwin

Other formats

Comma delimited format used in spreadsheet applications
http://www.bom.gov.au/fwo/IDQ60901/IDQ60901.94591.axf

JavaScript Object Notation format (JSON) in row-major order
http://www.bom.gov.au/fwo/IDQ60901/IDQ60901.94591.json

Data quality

Most of these data are generated automatically and are frequently updated. Quality checks on data are not normally performed. It is possible for incorrect values to appear. Refer to information at About Latest Weather Observations and please check the disclaimer before using these data.